KHSE

Billy Mitchell Airport

Hatteras, North Carolina, USA
METAR KHSE 221651Z AUTO 22008KT 10SM CLR 27/23 A3015 RMK AO2 SLP209 T02670228
Observed Flight Rules
May-22 @ 16:51 UTC (52 minutes ago) Visual Flight Rules
Wind Visibility Clouds
220° at 8 knots 10 miles
  • Clear skies
Temperatures Readings
Current 27°C / 81°F
Dewpoint 23°C / 73°F
Humidity 79%
Altimeter 30.15" Hg
Pressure 1020.9 hPa
Elevation 3
METAR KHSE 221651Z AUTO 22008KT 10SM CLR 27/23 A3015 RMK AO2 SLP209 T02670228
Observed Flight Rules
May-22 @ 16:51 UTC
(52 minutes ago)
VFR
Wind Visibility
220° at 8 knots 10 miles
Clouds
  • Clear skies
Temperature Dewpoint
27°C / 81°F 23°C / 73°F
Humidity Altimeter Pressure
79% 30.15" Hg 1020.9 hPa